Time;durP1;ratioP1;P1;durP2;ratioP2;P2;SDS_P1;SDS_P2;PMS_P1;PMS_P2;Temp;Humidity;BMP_temperature;BMP_pressure;BME280_temperature;BME280_humidity;BME280_pressure;Samples;Min_cycle;Max_cycle;Signal;HPM_P1;HPM_P2
2021/04/02 00:00:08;;;;;;;12.13;7.70;;;;;;;;;;5034681;28;20454;-58
2021/04/02 00:02:34;;;;;;;20.00;8.50;;;;;;;;;;5033461;28;20472;-59
2021/04/02 00:05:01;;;;;;;12.33;8.00;;;;;;;;;;5033426;28;20796;-60
2021/04/02 00:07:28;;;;;;;14.13;8.27;;;;;;;;;;5033131;28;20448;-60
2021/04/02 00:09:54;;;;;;;14.17;9.00;;;;;;;;;;5032134;28;20449;-60
2021/04/02 00:12:21;;;;;;;15.80;8.87;;;;;;;;;;5033692;28;20488;-59
2021/04/02 00:14:47;;;;;;;16.97;8.53;;;;;;;;;;5033492;28;20517;-59
2021/04/02 00:17:14;;;;;;;12.70;8.40;;;;;;;;;;5033950;28;21015;-59
2021/04/02 00:19:40;;;;;;;12.90;8.97;;;;;;;;;;5034104;28;20455;-60
2021/04/02 00:22:07;;;;;;;14.60;8.50;;;;;;;;;;5033466;28;20480;-59
2021/04/02 00:24:34;;;;;;;16.53;9.97;;;;;;;;;;5033531;28;20442;-60
2021/04/02 00:27:01;;;;;;;11.67;8.97;;;;;;;;;;5033865;28;20558;-59
2021/04/02 00:29:27;;;;;;;18.93;9.77;;;;;;;;;;5033914;28;20454;-60
2021/04/02 00:31:54;;;;;;;17.70;9.90;;;;;;;;;;5033727;28;20469;-59
2021/04/02 00:34:20;;;;;;;15.90;10.07;;;;;;;;;;5033360;28;20962;-60
2021/04/02 00:36:47;;;;;;;11.77;8.87;;;;;;;;;;5033693;28;20453;-59
2021/04/02 00:39:13;;;;;;;14.50;9.33;;;;;;;;;;5033611;28;21111;-60
2021/04/02 00:41:40;;;;;;;15.00;9.47;;;;;;;;;;5033834;28;20484;-59
2021/04/02 00:44:07;;;;;;;16.33;8.83;;;;;;;;;;5033214;28;20449;-59
2021/04/02 00:46:34;;;;;;;13.03;8.63;;;;;;;;;;5033514;28;20504;-60
2021/04/02 00:49:00;;;;;;;14.77;9.90;;;;;;;;;;5033368;28;20970;-60
2021/04/02 00:51:28;;;;;;;14.90;9.13;;;;;;;;;;5033042;28;20457;-60
2021/04/02 00:53:56;;;;;;;17.53;9.53;;;;;;;;;;5032842;28;20453;-59
2021/04/02 00:56:22;;;;;;;16.20;9.73;;;;;;;;;;5032439;28;20565;-60
2021/04/02 00:58:50;;;;;;;16.17;9.23;;;;;;;;;;5033289;28;20456;-59
2021/04/02 01:01:17;;;;;;;12.60;8.30;;;;;;;;;;5033050;28;20481;-59
2021/04/02 01:03:44;;;;;;;16.53;9.60;;;;;;;;;;5032681;28;20449;-59
2021/04/02 01:06:13;;;;;;;16.20;8.97;;;;;;;;;;5032682;28;20446;-57
2021/04/02 01:08:42;;;;;;;18.07;9.57;;;;;;;;;;5032798;28;20469;-59
2021/04/02 01:11:09;;;;;;;12.47;9.70;;;;;;;;;;5032950;28;20461;-59
2021/04/02 01:13:36;;;;;;;18.07;10.00;;;;;;;;;;5032465;28;20465;-59
2021/04/02 01:16:07;;;;;;;17.10;8.80;;;;;;;;;;5032838;28;20491;-60
2021/04/02 01:18:35;;;;;;;18.77;9.67;;;;;;;;;;5032796;28;20452;-59
2021/04/02 01:21:05;;;;;;;15.37;8.93;;;;;;;;;;5032055;28;20446;-60
2021/04/02 01:23:36;;;;;;;16.27;9.13;;;;;;;;;;5031211;28;20470;-59
2021/04/02 01:26:06;;;;;;;17.13;9.57;;;;;;;;;;5031464;28;20449;-60
2021/04/02 01:28:51;;;;;;;20.50;9.03;;;;;;;;;;5032718;28;20449;-59
2021/04/02 01:31:18;;;;;;;18.40;10.10;;;4.90;99.90;;;;;;5032164;28;20456;-59
2021/04/02 01:33:45;;;;;;;14.30;8.70;;;;;;;;;;5032064;28;20465;-59
2021/04/02 01:36:12;;;;;;;17.93;8.97;;;;;;;;;;5031705;28;20543;-59
2021/04/02 01:38:41;;;;;;;16.53;9.53;;;;;;;;;;5032363;28;20445;-60
2021/04/02 01:41:11;;;;;;;18.73;10.37;;;4.60;1.00;;;;;;5032411;28;20451;-60
2021/04/02 01:43:40;;;;;;;22.40;10.47;;;;;;;;;;5032171;28;20448;-60
2021/04/02 01:46:07;;;;;;;14.13;9.43;;;;;;;;;;5032426;28;20449;-60
2021/04/02 01:48:36;;;;;;;15.07;9.70;;;;;;;;;;5032779;28;20449;-57
2021/04/02 01:51:05;;;;;;;15.80;9.53;;;;;;;;;;5032739;28;20449;-59
2021/04/02 01:53:33;;;;;;;16.07;10.33;;;;;;;;;;5032988;28;21005;-59
2021/04/02 01:55:59;;;;;;;14.67;9.87;;;;;;;;;;5032656;28;20478;-59
2021/04/02 01:58:27;;;;;;;17.43;10.00;;;;;;;;;;5032019;28;20947;-58
2021/04/02 02:00:55;;;;;;;15.20;9.77;;;;;;;;;;5031831;28;20930;-59
2021/04/02 02:03:24;;;;;;;22.63;11.73;;;;;;;;;;5031760;28;20481;-59
2021/04/02 02:05:55;;;;;;;19.37;10.80;;;;;;;;;;5031662;28;20450;-60
2021/04/02 02:08:23;;;;;;;20.33;11.57;;;;;;;;;;5031204;28;20460;-59
2021/04/02 02:10:53;;;;;;;18.40;11.13;;;;;;;;;;5031871;28;20453;-59
2021/04/02 02:13:19;;;;;;;14.70;10.17;;;;;;;;;;5031830;28;21056;-59
2021/04/02 02:15:46;;;;;;;14.50;10.57;;;;;;;;;;5031844;28;20485;-58
2021/04/02 02:18:16;;;;;;;22.67;11.27;;;;;;;;;;5031875;28;20452;-59
2021/04/02 02:20:44;;;;;;;18.23;11.40;;;;;;;;;;5031907;28;20445;-59
2021/04/02 02:23:11;;;;;;;20.93;11.40;;;;;;;;;;5031241;28;20548;-59
2021/04/02 02:25:38;;;;;;;22.50;11.77;;;;;;;;;;5031580;28;20445;-59
2021/04/02 02:28:05;;;;;;;21.40;12.30;;;;;;;;;;5031887;28;20453;-59
2021/04/02 02:30:33;;;;;;;24.17;13.87;;;;;;;;;;5031663;28;20503;-58
2021/04/02 02:32:59;;;;;;;21.23;11.27;;;;;;;;;;5031812;28;20468;-59
2021/04/02 02:35:26;;;;;;;20.10;11.10;;;;;;;;;;5031051;28;20542;-58
2021/04/02 02:37:55;;;;;;;18.73;10.63;;;;;;;;;;5031628;28;20453;-59
2021/04/02 02:40:25;;;;;;;21.30;11.57;;;;;;;;;;5031470;28;20546;-58
2021/04/02 02:42:52;;;;;;;23.87;11.87;;;;;;;;;;5031772;28;20473;-59
2021/04/02 02:45:19;;;;;;;18.67;10.97;;;;;;;;;;5031599;28;20507;-58
2021/04/02 02:47:46;;;;;;;18.97;11.83;;;;;;;;;;5031379;28;20456;-60
2021/04/02 02:50:14;;;;;;;19.13;11.57;;;;;;;;;;5031559;28;20818;-60
2021/04/02 02:52:41;;;;;;;22.23;12.73;;;;;;;;;;5031197;28;20474;-59
2021/04/02 02:55:09;;;;;;;16.67;11.97;;;;;;;;;;5031424;28;20542;-59
2021/04/02 02:57:40;;;;;;;18.57;12.07;;;;;;;;;;5031485;28;20454;-59
2021/04/02 03:00:09;;;;;;;18.90;12.27;;;;;;;;;;5031433;28;20464;-58
2021/04/02 03:02:36;;;;;;;20.63;14.00;;;;;;;;;;5031493;28;20469;-59
2021/04/02 03:05:03;;;;;;;30.67;13.50;;;;;;;;;;5030752;28;20437;-58
2021/04/02 03:07:31;;;;;;;21.87;12.93;;;;;;;;;;5031680;28;20460;-59
2021/04/02 03:09:59;;;;;;;19.93;13.43;;;;;;;;;;5031470;28;20874;-59
2021/04/02 03:12:27;;;;;;;25.80;14.10;;;;;;;;;;5031354;28;21004;-58
2021/04/02 03:14:54;;;;;;;22.07;13.03;;;;;;;;;;5031107;28;20481;-59
2021/04/02 03:17:22;;;;;;;22.63;13.00;;;;;;;;;;5031254;28;20458;-59
2021/04/02 03:19:50;;;;;;;21.57;13.60;;;;;;;;;;5032024;28;20826;-59
2021/04/02 03:22:18;;;;;;;26.33;13.67;;;;;;;;;;5034862;28;20477;-57
2021/04/02 03:24:47;;;;;;;22.30;13.87;;;;;;;;;;5034832;28;20452;-58
2021/04/02 03:27:14;;;;;;;21.57;13.53;;;;;;;;;;5034872;28;20445;-56
2021/04/02 03:29:40;;;;;;;25.33;14.03;;;;;;;;;;5034946;28;20457;-59
2021/04/02 03:32:10;;;;;;;21.30;11.27;;;;;;;;;;5034428;28;20512;-59
2021/04/02 03:34:38;;;;;;;19.73;13.07;;;;;;;;;;5034687;28;20453;-58
2021/04/02 03:37:06;;;;;;;21.67;12.83;;;;;;;;;;5034930;28;20457;-59
2021/04/02 03:39:33;;;;;;;25.00;13.97;;;;;;;;;;5034369;28;20457;-59
2021/04/02 03:42:02;;;;;;;26.70;13.33;;;;;;;;;;5034748;28;20469;-58
2021/04/02 03:44:30;;;;;;;19.23;11.93;;;;;;;;;;5034013;28;21089;-58
2021/04/02 03:46:57;;;;;;;25.40;15.33;;;;;;;;;;5034401;28;20822;-58
2021/04/02 03:49:26;;;;;;;22.00;14.57;;;;;;;;;;5035015;28;20453;-58
2021/04/02 03:51:55;;;;;;;26.20;14.60;;;;;;;;;;5037049;28;20519;-60
2021/04/02 03:54:22;;;;;;;22.47;13.77;;;;;;;;;;5036470;28;20926;-60
2021/04/02 03:56:49;;;;;;;24.07;14.00;;;;;;;;;;5034303;28;20492;-58
2021/04/02 03:59:16;;;;;;;25.17;14.63;;;;;;;;;;5040891;28;20449;-60
2021/04/02 04:01:46;;;;;;;29.03;13.93;;;;;;;;;;5039956;28;20983;-61
2021/04/02 04:04:13;;;;;;;24.07;14.70;;;;;;;;;;5039049;28;20460;-59
2021/04/02 04:06:42;;;;;;;22.63;15.80;;;;;;;;;;5033763;28;20457;-59
2021/04/02 04:09:09;;;;;;;22.17;14.10;;;;;;;;;;5033949;28;20461;-60
2021/04/02 04:11:36;;;;;;;28.50;16.77;;;;;;;;;;5033963;28;20525;-59
2021/04/02 04:14:03;;;;;;;24.97;16.80;;;;;;;;;;5034133;28;20457;-59
2021/04/02 04:16:31;;;;;;;25.97;16.63;;;;;;;;;;5033667;28;20858;-60
2021/04/02 04:18:59;;;;;;;27.20;17.30;;;;;;;;;;5033974;28;20452;-60
2021/04/02 04:21:26;;;;;;;35.67;20.10;;;;;;;;;;5033860;28;20449;-60
2021/04/02 04:23:54;;;;;;;34.83;18.73;;;;;;;;;;5033665;28;20456;-59
2021/04/02 04:26:22;;;;;;;32.60;17.77;;;;;;;;;;5033450;28;20500;-59
2021/04/02 04:28:52;;;;;;;33.03;15.60;;;;;;;;;;5034010;28;20848;-56
2021/04/02 04:31:19;;;;;;;27.73;16.87;;;;;;;;;;5032765;28;20492;-59
2021/04/02 04:33:47;;;;;;;29.57;18.10;;;;;;;;;;5033408;28;20450;-59
2021/04/02 04:36:14;;;;;;;27.83;17.83;;;;;;;;;;5033478;28;20489;-60
2021/04/02 04:38:41;;;;;;;32.00;19.30;;;;;;;;;;5033614;28;20449;-59
2021/04/02 04:41:09;;;;;;;32.60;19.17;;;;;;;;;;5033742;28;20445;-60
2021/04/02 04:43:36;;;;;;;37.87;19.37;;;;;;;;;;5033227;28;20530;-59
2021/04/02 04:46:03;;;;;;;31.70;19.53;;;;;;;;;;5033473;28;20453;-59
2021/04/02 04:48:30;;;;;;;30.53;18.73;;;;;;;;;;5033199;28;20445;-57
2021/04/02 04:50:57;;;;;;;32.07;19.67;;;;;;;;;;5033224;28;20454;-60
2021/04/02 04:53:24;;;;;;;34.67;20.07;;;;;;;;;;5033058;28;20466;-56
2021/04/02 04:55:52;;;;;;;38.53;19.30;;;;;;;;;;5032846;28;20488;-58
2021/04/02 04:58:20;;;;;;;34.97;18.73;;;;;;;;;;5033454;28;20823;-60
2021/04/02 05:00:48;;;;;;;33.43;19.27;;;;;;;;;;5032968;28;20500;-59
2021/04/02 05:03:17;;;;;;;38.40;17.17;;;;;;;;;;5033139;28;20481;-59
2021/04/02 05:05:45;;;;;;;31.47;17.87;;;;;;;;;;5032531;28;20445;-59
2021/04/02 05:08:13;;;;;;;39.13;19.53;;;;;;;;;;5032973;28;20438;-59
2021/04/02 05:10:41;;;;;;;35.77;19.57;;;;;;;;;;5033008;28;20461;-58
2021/04/02 05:13:08;;;;;;;36.50;17.97;;;;;;;;;;5032814;28;20467;-57
2021/04/02 05:15:35;;;;;;;32.53;18.63;;;;;;;;;;5032692;28;20473;-59
2021/04/02 05:18:02;;;;;;;30.40;18.57;;;;;;;;;;5032732;28;20505;-59
2021/04/02 05:20:32;;;;;;;32.20;19.90;;;;;;;;;;5032630;28;20453;-59
2021/04/02 05:22:58;;;;;;;32.67;20.30;;;;;;;;;;5032689;28;20492;-60
2021/04/02 05:25:25;;;;;;;37.47;23.00;;;;;;;;;;5032689;28;20444;-60
2021/04/02 05:27:51;;;;;;;34.43;20.77;;;;;;;;;;5032728;28;20460;-58
2021/04/02 05:30:19;;;;;;;36.03;21.77;;;;;;;;;;5032536;28;20457;-59
2021/04/02 05:32:46;;;;;;;44.50;24.83;;;;;;;;;;5032518;28;20496;-59
2021/04/02 05:35:13;;;;;;;47.40;24.57;;;;;;;;;;5031575;28;20488;-59
2021/04/02 05:37:39;;;;;;;43.37;24.07;;;;;;;;;;5032605;28;20456;-59
2021/04/02 05:40:06;;;;;;;36.57;23.20;;;;;;;;;;5032322;28;20515;-60
2021/04/02 05:42:33;;;;;;;51.43;25.73;;;;;;;;;;5032000;28;21179;-59
2021/04/02 05:45:00;;;;;;;49.03;26.10;;;;;;;;;;5032303;28;20453;-59
2021/04/02 05:47:27;;;;;;;49.37;25.20;;;;;;;;;;5032351;28;20510;-59
2021/04/02 05:49:56;;;;;;;42.63;22.80;;;;;;;;;;5032486;28;21012;-59
2021/04/02 05:52:25;;;;;;;47.63;26.50;;;;;;;;;;5032468;28;20841;-59
2021/04/02 05:54:52;;;;;;;44.03;24.17;;;;;;;;;;5032170;28;20450;-59
2021/04/02 05:57:19;;;;;;;45.47;21.93;;;;;;;;;;5032286;28;20453;-60
2021/04/02 05:59:47;;;;;;;52.27;24.77;;;;;;;;;;5032200;28;20454;-60
2021/04/02 06:02:14;;;;;;;44.10;23.83;;;;;;;;;;5032468;28;20477;-60
2021/04/02 06:04:40;;;;;;;49.23;27.47;;;;;;;;;;5031632;28;20452;-60
2021/04/02 06:07:08;;;;;;;52.13;27.13;;;;;;;;;;5032253;28;20453;-59
2021/04/02 06:09:34;;;;;;;48.60;23.70;;;;;;;;;;5031995;28;20931;-60
2021/04/02 06:12:01;;;;;;;50.60;29.10;;;;;;;;;;5032085;28;20465;-60
2021/04/02 06:14:27;;;;;;;48.43;27.33;;;;;;;;;;5030831;28;20495;-60
2021/04/02 06:16:54;;;;;;;52.33;28.57;;;;;;;;;;5029975;28;20477;-61
2021/04/02 06:19:21;;;;;;;51.33;26.87;;;;;;;;;;5031276;28;20454;-60
2021/04/02 06:21:49;;;;;;;53.37;25.67;;;;;;;;;;5032037;28;20480;-61
2021/04/02 06:24:16;;;;;;;49.53;25.27;;;;;;;;;;5031674;28;20449;-60
2021/04/02 06:26:59;;;;;;;49.67;27.27;;;;;;;;;;5032245;28;20445;-60
2021/04/02 06:29:28;;;;;;;49.17;26.73;;;;;;;;;;5030745;28;21020;-60
2021/04/02 06:31:55;;;;;;;56.37;28.60;;;;;;;;;;5031817;28;20465;-60
2021/04/02 06:34:22;;;;;;;43.07;24.53;;;;;;;;;;5031595;28;20523;-62
2021/04/02 06:36:50;;;;;;;48.63;25.80;;;;;;;;;;5031869;28;21005;-61
2021/04/02 06:39:17;;;;;;;49.97;25.97;;;;;;;;;;5031805;28;20445;-60
2021/04/02 06:41:46;;;;;;;42.00;22.87;;;;;;;;;;5031408;28;20514;-60
2021/04/02 06:44:13;;;;;;;47.40;21.70;;;;;;;;;;5031476;28;20837;-59
2021/04/02 06:46:40;;;;;;;35.10;19.50;;;;;;;;;;5031738;28;20449;-60
2021/04/02 06:49:12;;;;;;;39.83;20.23;;;;;;;;;;5031803;28;20560;-59
2021/04/02 06:51:39;;;;;;;42.90;24.57;;;;;;;;;;5031239;28;21060;-60
2021/04/02 06:54:06;;;;;;;46.93;27.20;;;;;;;;;;5031214;28;20453;-60
2021/04/02 06:56:33;;;;;;;40.37;24.20;;;;;;;;;;5032340;28;20496;-61
2021/04/02 06:59:01;;;;;;;42.50;21.53;;;;;;;;;;5035483;28;20449;-61
2021/04/02 07:01:28;;;;;;;33.80;22.40;;;;;;;;;;5035216;28;20457;-61
2021/04/02 07:03:55;;;;;;;46.37;25.23;;;;;;;;;;5035173;28;20552;-60
2021/04/02 07:06:22;;;;;;;36.20;23.83;;;;;;;;;;5035520;28;20445;-61
2021/04/02 07:08:49;;;;;;;38.17;25.13;;;;;;;;;;5034986;28;20456;-60
2021/04/02 07:11:17;;;;;;;26.37;15.20;;;;;;;;;;5036346;28;20452;-59
2021/04/02 07:13:48;;;;;;;32.10;22.83;;;;;;;;;;5042572;28;20447;-63
2021/04/02 07:16:15;;;;;;;36.83;22.20;;;;;;;;;;5044528;28;20491;-64
2021/04/02 07:18:41;;;;;;;35.47;21.50;;;;;;;;;;5054980;28;20455;-61
2021/04/02 07:21:08;;;;;;;24.23;15.13;;;;;;;;;;5054397;28;20448;-64
2021/04/02 07:23:35;;;;;;;31.43;21.50;;;;;;;;;;5053988;28;20471;-63
2021/04/02 07:26:02;;;;;;;32.03;19.33;;;;;;;;;;5054230;28;20455;-65
2021/04/02 07:28:29;;;;;;;30.90;18.23;;;;;;;;;;5054625;28;20452;-66
2021/04/02 07:30:57;;;;;;;41.03;24.10;;;;;;;;;;5054383;28;20510;-62
2021/04/02 07:33:25;;;;;;;31.67;18.80;;;;;;;;;;5054124;28;20499;-61
2021/04/02 07:35:55;;;;;;;29.83;19.63;;;;;;;;;;5053746;28;20488;-62
2021/04/02 07:38:25;;;;;;;31.43;18.77;;;;;;;;;;5054112;28;20488;-62
2021/04/02 07:40:51;;;;;;;29.00;19.80;;;;;;;;;;5054377;28;20474;-62
2021/04/02 07:43:19;;;;;;;36.13;20.47;;;;;;;;;;5053979;28;20841;-64
2021/04/02 07:45:52;;;;;;;34.03;19.33;;;;;;;;;;5054095;28;20440;-60
2021/04/02 07:48:23;;;;;;;33.17;20.60;;;;;;;;;;5053920;28;20447;-60
2021/04/02 07:50:51;;;;;;;26.97;17.43;;;;;;;;;;5054760;28;20452;-59
2021/04/02 07:53:19;;;;;;;30.50;19.20;;;;;;;;;;5053940;28;20529;-60
2021/04/02 07:55:50;;;;;;;31.10;19.37;;;;;;;;;;5053874;28;20488;-62
2021/04/02 07:58:23;;;;;;;26.83;15.47;;;;;;;;;;5038263;28;20453;-59
2021/04/02 08:00:53;;;;;;;31.90;16.43;;;;;;;;;;5036017;28;20942;-61
2021/04/02 08:03:20;;;;;;;23.53;14.37;;;;;;;;;;5036663;28;20524;-62
2021/04/02 08:05:56;;;;;;;28.37;16.87;;;;;;;;;;5034080;28;20994;-62
2021/04/02 08:08:23;;;;;;;26.37;17.17;;;;;;;;;;5035772;28;20623;-62
2021/04/02 08:11:03;;;;;;;28.53;15.33;;;;;;;;;;5038502;28;20834;-62
2021/04/02 08:13:29;;;;;;;27.27;15.63;;;;;;;;;;5036524;28;20467;-59
2021/04/02 08:15:59;;;;;;;24.50;15.30;;;;;;;;;;5036415;28;20484;-61
2021/04/02 08:18:27;;;;;;;24.40;15.33;;;;;;;;;;5035632;28;20461;-61
2021/04/02 08:20:56;;;;;;;24.67;14.27;;;;;;;;;;5034662;28;20453;-61
2021/04/02 08:23:24;;;;;;;23.60;13.73;;;;;;;;;;5034007;28;20473;-59
2021/04/02 08:25:54;;;;;;;20.27;14.73;;;;;;;;;;5033250;28;20450;-63
2021/04/02 08:28:23;;;;;;;19.77;14.50;;;;;;;;;;5033591;28;20441;-63
2021/04/02 08:30:50;;;;;;;20.80;13.70;;;;;;;;;;5032969;28;20477;-62
2021/04/02 08:33:17;;;;;;;20.67;12.77;;;;;;;;;;5033592;28;21147;-61
2021/04/02 08:35:45;;;;;;;18.10;11.70;;;;;;;;;;5032974;28;20486;-61
2021/04/02 08:38:12;;;;;;;18.47;11.33;;;;;;;;;;5033171;28;20448;-66
2021/04/02 08:40:38;;;;;;;16.37;11.30;;;;;;;;;;5033108;28;20835;-66
2021/04/02 08:43:06;;;;;;;18.67;11.50;;;;;;;;;;5033094;28;20475;-66
2021/04/02 08:45:33;;;;;;;11.33;9.10;;;;;;;;;;5033282;28;20448;-67
2021/04/02 08:48:00;;;;;;;12.30;8.50;;;;;;;;;;5033383;28;20531;-65
2021/04/02 08:50:26;;;;;;;15.90;9.70;;;;;;;;;;5033024;28;20469;-66
2021/04/02 08:53:01;;;;;;;159.00;94.40;;;;;;;;;;5032631;28;20474;-67
2021/04/02 08:55:28;;;;;;;16.70;9.63;;;;;;;;;;5032867;28;20482;-66
2021/04/02 08:57:55;;;;;;;16.80;9.20;;;;;;;;;;5033243;28;20463;-67
2021/04/02 09:00:22;;;;;;;13.03;8.63;;;;;;;;;;5032620;28;20482;-66
2021/04/02 09:02:50;;;;;;;17.70;9.37;;;;;;;;;;5032555;28;20486;-66
2021/04/02 09:05:16;;;;;;;19.23;9.30;;;;;;;;;;5032526;28;20517;-67
2021/04/02 09:07:43;;;;;;;10.93;7.83;;;;;;;;;;5032482;28;20447;-67
2021/04/02 09:10:12;;;;;;;14.37;8.57;;;;;;;;;;5033069;28;20463;-66
2021/04/02 09:12:39;;;;;;;15.17;10.13;;;;;;;;;;5031722;28;20480;-66
2021/04/02 09:15:06;;;;;;;17.10;10.27;;;;;;;;;;5032238;28;20952;-66
2021/04/02 09:17:32;;;;;;;16.13;8.07;;;;;;;;;;5031957;28;20463;-66
2021/04/02 09:19:59;;;;;;;16.00;8.20;;;;;;;;;;5032477;28;20453;-59
2021/04/02 09:22:25;;;;;;;13.73;8.87;;;;;;;;;;5032358;28;20478;-58
2021/04/02 09:24:53;;;;;;;11.77;8.60;;;;;;;;;;5032063;28;20459;-59
2021/04/02 09:27:22;;;;;;;16.90;9.70;;;;;;;;;;5032543;28;20450;-58
2021/04/02 09:29:55;;;;;;;14.73;8.77;;;;;;;;;;5032135;28;20459;-59
2021/04/02 09:32:22;;;;;;;19.77;11.23;;;;;;;;;;5031900;28;20480;-59
2021/04/02 09:34:48;;;;;;;23.03;13.87;;;;;;;;;;5031468;28;20463;-59
2021/04/02 09:37:16;;;;;;;15.77;9.53;;;;;;;;;;5032343;28;20491;-58
2021/04/02 09:39:42;;;;;;;14.67;10.20;;;;;;;;;;5032268;28;20451;-58
2021/04/02 09:42:14;;;;;;;16.20;10.37;;;;;;;;;;5031594;28;20467;-57
2021/04/02 09:44:46;;;;;;;15.17;9.60;;;;;;;;;;5031648;28;20454;-63
2021/04/02 09:47:13;;;;;;;12.23;9.50;;;;;;;;;;5032106;28;20512;-59
2021/04/02 09:49:40;;;;;;;14.13;8.90;;;;;;;;;;5032129;28;21017;-60
2021/04/02 09:52:08;;;;;;;16.13;9.27;;;;;;;;;;5031644;28;20482;-62
2021/04/02 09:54:34;;;;;;;16.37;9.57;;;;;;;;;;5031847;28;20455;-62
2021/04/02 09:57:02;;;;;;;16.13;9.60;;;;;;;;;;5033111;28;20858;-63
2021/04/02 09:59:29;;;;;;;15.33;8.97;;;;;;;;;;5033341;28;20441;-63
2021/04/02 10:01:56;;;;;;;15.20;10.60;;;;;;;;;;5032765;28;20469;-62
2021/04/02 10:04:23;;;;;;;17.77;10.97;;;;;;;;;;5032507;28;20455;-68
2021/04/02 10:06:50;;;;;;;20.93;9.23;;;;;;;;;;5032177;28;20582;-68
2021/04/02 10:09:16;;;;;;;15.67;9.07;;;;;;;;;;5032110;28;20456;-70
2021/04/02 10:11:45;;;;;;;15.67;9.30;;;;;;;;;;5031681;28;20476;-71
2021/04/02 10:14:12;;;;;;;12.60;9.13;;;;;;;;;;5032080;28;20811;-68
2021/04/02 10:16:38;;;;;;;11.73;7.80;;;;;;;;;;5031994;28;20497;-68
2021/04/02 10:19:06;;;;;;;11.80;8.77;;;;;;;;;;5032043;28;20503;-67
2021/04/02 10:21:33;;;;;;;16.80;9.00;;;;;;;;;;5032359;28;20456;-65
2021/04/02 10:24:00;;;;;;;14.07;8.47;;;;;;;;;;5031678;28;20469;-65
2021/04/02 10:26:27;;;;;;;17.60;8.93;;;;;;;;;;5031293;28;20457;-64
2021/04/02 10:28:54;;;;;;;13.80;7.90;;;;;;;;;;5031505;28;20452;-65
2021/04/02 10:31:20;;;;;;;12.33;7.50;;;;;;;;;;5035129;28;20457;-62
2021/04/02 10:33:47;;;;;;;12.33;8.07;;;;;;;;;;5035948;28;20518;-62
2021/04/02 10:36:15;;;;;;;16.00;8.30;;;;;;;;;;5035505;28;20505;-62
2021/04/02 10:38:42;;;;;;;13.60;9.03;;;;;;;;;;5035775;28;20452;-61
2021/04/02 10:41:08;;;;;;;17.63;9.20;;;;;;;;;;5035430;28;20457;-61
2021/04/02 10:43:35;;;;;;;14.30;9.50;;;;;;;;;;5035373;28;20997;-61
2021/04/02 10:46:02;;;;;;;12.47;8.13;;;;;;;;;;5035865;28;20445;-61
2021/04/02 10:48:28;;;;;;;14.53;8.27;;;;;;;;;;5035479;28;20453;-63
2021/04/02 10:50:55;;;;;;;13.07;8.70;;;;;;;;;;5035061;28;20464;-63
2021/04/02 10:53:24;;;;;;;13.10;8.60;;;;;;;;;;5035181;28;20476;-65
2021/04/02 10:55:50;;;;;;;12.37;9.20;;;;;;;;;;5034794;28;20494;-63
2021/04/02 10:58:17;;;;;;;11.80;7.67;;;;;;;;;;5035424;28;20456;-65
2021/04/02 11:00:44;;;;;;;12.73;8.40;;;;;;;;;;5035212;28;21026;-64
2021/04/02 11:03:10;;;;;;;17.33;8.63;;;;;;;;;;5035213;28;21011;-64
2021/04/02 11:05:37;;;;;;;14.90;8.07;;;;;;;;;;5035447;28;20452;-64
2021/04/02 11:08:04;;;;;;;16.03;9.90;;;;;;;;;;5035690;28;20459;-65
2021/04/02 11:10:32;;;;;;;18.20;10.07;;;;;;;;;;5033967;28;20460;-66
2021/04/02 11:12:58;;;;;;;16.83;10.47;;;;;;;;;;5035573;28;20527;-61
2021/04/02 11:15:25;;;;;;;17.27;11.77;;;;;;;;;;5035169;28;20464;-64
2021/04/02 11:17:52;;;;;;;19.87;11.83;;;;;;;;;;5035447;28;20448;-61
2021/04/02 11:20:19;;;;;;;20.57;12.17;;;;;;;;;;5034664;28;20904;-63
2021/04/02 11:22:46;;;;;;;15.97;11.73;;;;;;;;;;5034611;28;20532;-63
2021/04/02 11:25:13;;;;;;;17.83;11.60;;;;;;;;;;5034243;28;20981;-62
2021/04/02 11:27:42;;;;;;;16.10;11.73;;;;;;;;;;5034763;28;20479;-63
2021/04/02 11:30:09;;;;;;;22.87;13.47;;;;;;;;;;5034594;28;20602;-62
2021/04/02 11:32:36;;;;;;;14.27;10.93;;;;;;;;;;5034254;28;20469;-62
2021/04/02 11:35:02;;;;;;;16.77;11.63;;;;;;;;;;5034170;28;20483;-61
2021/04/02 11:37:29;;;;;;;23.43;14.13;;;;;;;;;;5034285;28;20832;-64
2021/04/02 11:39:55;;;;;;;21.40;13.87;;;;;;;;;;5034816;28;20452;-62
2021/04/02 11:42:22;;;;;;;24.23;15.30;;;;;;;;;;5033799;28;20473;-62
2021/04/02 11:44:49;;;;;;;22.23;16.10;;;;;;;;;;5034172;28;20830;-63
2021/04/02 11:47:16;;;;;;;23.50;16.43;;;;;;;;;;5033711;28;20863;-62
2021/04/02 11:49:42;;;;;;;27.00;17.00;;;;;;;;;;5033891;28;20460;-62
2021/04/02 11:52:09;;;;;;;40.33;26.03;;;;;;;;;;5033757;28;20522;-62
2021/04/02 11:54:35;;;;;;;40.97;28.00;;;;;;;;;;5034479;28;20528;-62
2021/04/02 11:57:02;;;;;;;33.07;21.67;;;;;;;;;;5033941;28;20988;-61
2021/04/02 11:59:29;;;;;;;24.17;17.90;;;;;;;;;;5034353;28;20458;-59
2021/04/02 12:01:56;;;;;;;23.20;15.73;;;;;;;;;;5034075;28;20487;-60
2021/04/02 12:04:22;;;;;;;25.67;13.33;;;;;;;;;;5034674;28;21123;-60
2021/04/02 12:06:49;;;;;;;17.40;12.47;;;;;;;;;;5036444;28;20858;-61
2021/04/02 12:09:15;;;;;;;16.57;11.20;;;;;;;;;;5037564;28;20454;-62
2021/04/02 12:11:42;;;;;;;17.77;11.70;;;;;;;;;;5033980;28;20842;-62
2021/04/02 12:14:09;;;;;;;17.17;10.03;;;;;;;;;;5037816;28;20453;-63
2021/04/02 12:16:35;;;;;;;14.40;10.83;;;;;;;;;;5040311;28;21071;-63
2021/04/02 12:19:03;;;;;;;14.40;9.90;;;;;;;;;;5041284;28;20460;-61
2021/04/02 12:21:30;;;;;;;20.47;11.43;;;;;;;;;;5034195;28;20449;-62
2021/04/02 12:23:58;;;;;;;18.43;12.87;;;;;;;;;;5033266;28;20461;-63
2021/04/02 12:26:24;;;;;;;18.43;14.07;;;;;;;;;;5032877;28;21036;-63
2021/04/02 12:28:51;;;;;;;19.70;12.47;;;;;;;;;;5033786;28;20449;-62
2021/04/02 12:31:18;;;;;;;19.80;13.30;;;;;;;;;;5032392;28;20461;-62
2021/04/02 12:33:45;;;;;;;19.97;11.67;;;;;;;;;;5033167;28;20473;-62
2021/04/02 12:36:12;;;;;;;15.70;10.30;;;;;;;;;;5032100;28;20485;-60
2021/04/02 12:38:39;;;;;;;11.60;9.23;;;;;;;;;;5033423;28;20457;-60
2021/04/02 12:41:06;;;;;;;16.27;10.00;;;;;;;;;;5032677;28;20449;-61
2021/04/02 12:43:32;;;;;;;17.87;10.70;;;;;;;;;;5033041;28;20473;-61
2021/04/02 12:45:59;;;;;;;17.40;10.70;;;;;;;;;;5032410;28;20946;-61
2021/04/02 12:48:27;;;;;;;15.60;7.97;;;;;;;;;;5032777;28;20445;-59
2021/04/02 12:50:54;;;;;;;13.43;6.27;;;;;;;;;;5033357;28;20817;-62
2021/04/02 12:53:21;;;;;;;7.93;5.07;;;;;;;;;;5032127;28;20233;-59
2021/04/02 12:55:48;;;;;;;12.43;6.30;;;;;;;;;;5032804;28;20226;-60
2021/04/02 12:58:15;;;;;;;14.87;9.07;;;;;;;;;;5032923;28;20457;-60
2021/04/02 13:00:41;;;;;;;7.27;4.60;;;;;;;;;;5032855;28;20507;-60
2021/04/02 13:03:08;;;;;;;7.63;4.90;;;;;;;;;;5032386;28;20231;-61
2021/04/02 13:05:35;;;;;;;10.27;4.07;;;;;;;;;;5032479;28;20457;-61
2021/04/02 13:08:01;;;;;;;8.93;3.60;;;;;;;;;;5032904;28;20456;-61
2021/04/02 13:10:29;;;;;;;7.23;3.20;;;;;;;;;;5032832;28;20448;-63
2021/04/02 13:12:56;;;;;;;7.63;3.43;;;;;;;;;;5032330;28;20702;-61
2021/04/02 13:15:23;;;;;;;12.20;4.03;;;;;;;;;;5032294;28;20449;-62
2021/04/02 13:17:50;;;;;;;7.30;4.10;;;;;;;;;;5032507;28;20473;-62
2021/04/02 13:20:17;;;;;;;6.47;4.00;;;;;;;;;;5032519;28;20458;-61
2021/04/02 13:22:44;;;;;;;7.47;3.33;;;;;;;;;;5032260;28;20477;-62
2021/04/02 13:25:11;;;;;;;6.00;3.80;;;;;;;;;;5032848;28;20206;-61
2021/04/02 13:27:38;;;;;;;8.07;3.90;;;;;;;;;;5032891;28;20203;-62
2021/04/02 13:30:09;;;;;;;8.67;3.87;;;;;;;;;;5031999;28;20264;-61
2021/04/02 13:32:36;;;;;;;10.80;4.53;;;;;;;;;;5032200;28;20476;-63
2021/04/02 13:35:03;;;;;;;8.13;4.90;;;;;;;;;;5031066;28;20465;-61
2021/04/02 13:37:29;;;;;;;7.80;5.50;;;;;;;;;;5030428;28;20222;-60
2021/04/02 13:39:56;;;;;;;11.10;6.47;;;;;;;;;;5032407;28;20802;-61
2021/04/02 13:42:23;;;;;;;9.33;5.23;;;;;;;;;;5032036;28;20222;-60
2021/04/02 13:44:50;;;;;;;8.30;5.20;;;;;;;;;;5032097;28;20826;-61
2021/04/02 13:47:17;;;;;;;10.47;4.43;;;;;;;;;;5032526;28;20209;-62
2021/04/02 13:49:43;;;;;;;8.47;4.43;;;;;;;;;;5032498;28;20460;-62
2021/04/02 13:52:10;;;;;;;12.67;4.47;;;;;;;;;;5032092;28;20715;-63
2021/04/02 13:54:36;;;;;;;7.83;4.20;;;;;;;;;;5031677;28;20456;-62
2021/04/02 13:57:03;;;;;;;12.83;5.50;;;;;;;;;;5032166;28;20877;-63
2021/04/02 13:59:30;;;;;;;10.90;4.90;;;;;;;;;;5032315;28;20452;-62
2021/04/02 14:01:57;;;;;;;8.93;4.97;;;;;;;;;;5031515;28;20464;-63
2021/04/02 14:04:23;;;;;;;12.50;5.33;;;;;;;;;;5031358;28;20453;-62
2021/04/02 14:06:50;;;;;;;9.57;5.00;;;;;;;;;;5032065;28;20445;-62
2021/04/02 14:09:17;;;;;;;10.93;5.90;;;;;;;;;;5031973;28;20461;-62
2021/04/02 14:11:44;;;;;;;11.47;5.10;;;;;;;;;;5031672;28;20703;-62
2021/04/02 14:14:11;;;;;;;9.83;5.43;;;;;;;;;;5031929;28;20215;-62
2021/04/02 14:16:37;;;;;;;10.67;5.43;;;;;;;;;;5031756;28;20228;-62
2021/04/02 14:19:05;;;;;;;11.03;4.00;;;;;;;;;;5031827;28;20208;-61
2021/04/02 14:21:31;;;;;;;12.13;5.57;;;;;;;;;;5031804;28;20603;-62